ERT960 HHAS-OEJN
Flight info
| Callsign | ERT960 |
|---|---|
| Flight time | 1h 10m |
| Altitude | 35000 |
| Route | ASM UG650 RASKA/N0456F360 T513 EGMEG |
| Aircraft | B762/H-SDFGIRWY/S |
Departure
| Time | 2026-05-07 13:29 |
|---|---|
| Airport | Asmara International Airport (HHAS) |
Arrival
| Time | 2026-05-07 14:39 |
|---|---|
| Airport | King Abdulaziz International Airport (OEJN) |
| Time | Latitude | Longitude | Altitude | Speed | Heading |
|---|---|---|---|---|---|
| 2026-05-07 12:52 | 15.29489 | 38.90762 | 7527 ft | 0 kts | 277° |
| 2026-05-07 13:17 | 15.29489 | 38.90759 | 7529 ft | 1 kts | 277° |
| 2026-05-07 13:17 | 15.29492 | 38.90731 | 7529 ft | 5 kts | 277° |
| 2026-05-07 13:18 | 15.29479 | 38.90710 | 7529 ft | 4 kts | 205° |
| 2026-05-07 13:18 | 15.29440 | 38.90699 | 7529 ft | 6 kts | 188° |
| 2026-05-07 13:18 | 15.29389 | 38.90691 | 7528 ft | 7 kts | 187° |
| 2026-05-07 13:18 | 15.29343 | 38.90696 | 7527 ft | 5 kts | 138° |
| 2026-05-07 13:19 | 15.29327 | 38.90732 | 7527 ft | 4 kts | 102° |
| 2026-05-07 13:19 | 15.29322 | 38.90758 | 7527 ft | 2 kts | 106° |
| 2026-05-07 13:19 | 15.29319 | 38.90765 | 7527 ft | 0 kts | 117° |
| 2026-05-07 13:19 | 15.29311 | 38.90774 | 7527 ft | 2 kts | 144° |
| 2026-05-07 13:20 | 15.29290 | 38.90783 | 7527 ft | 3 kts | 165° |
| 2026-05-07 13:20 | 15.29261 | 38.90780 | 7527 ft | 7 kts | 189° |
| 2026-05-07 13:20 | 15.29202 | 38.90770 | 7528 ft | 8 kts | 189° |
| 2026-05-07 13:20 | 15.29157 | 38.90762 | 7529 ft | 4 kts | 187° |
| 2026-05-07 13:21 | 15.29126 | 38.90758 | 7531 ft | 5 kts | 187° |
| 2026-05-07 13:21 | 15.29089 | 38.90754 | 7532 ft | 5 kts | 187° |
| 2026-05-07 13:21 | 15.29047 | 38.90748 | 7534 ft | 6 kts | 189° |
| 2026-05-07 13:21 | 15.29002 | 38.90743 | 7535 ft | 6 kts | 185° |
| 2026-05-07 13:22 | 15.28963 | 38.90743 | 7535 ft | 5 kts | 175° |
| 2026-05-07 13:22 | 15.28926 | 38.90748 | 7536 ft | 6 kts | 169° |
| 2026-05-07 13:22 | 15.28877 | 38.90760 | 7535 ft | 8 kts | 165° |
| 2026-05-07 13:22 | 15.28813 | 38.90779 | 7535 ft | 10 kts | 156° |
| 2026-05-07 13:23 | 15.28793 | 38.90837 | 7533 ft | 9 kts | 69° |
| 2026-05-07 13:23 | 15.28812 | 38.90905 | 7532 ft | 11 kts | 75° |
| 2026-05-07 13:23 | 15.28837 | 38.90998 | 7533 ft | 16 kts | 75° |
| 2026-05-07 13:23 | 15.28874 | 38.91137 | 7535 ft | 21 kts | 74° |
| 2026-05-07 13:24 | 15.28919 | 38.91298 | 7537 ft | 24 kts | 74° |
| 2026-05-07 13:24 | 15.28961 | 38.91455 | 7539 ft | 20 kts | 75° |
| 2026-05-07 13:24 | 15.28997 | 38.91586 | 7540 ft | 16 kts | 74° |
| 2026-05-07 13:24 | 15.29024 | 38.91684 | 7541 ft | 12 kts | 74° |
| 2026-05-07 13:25 | 15.29051 | 38.91782 | 7542 ft | 15 kts | 74° |
| 2026-05-07 13:25 | 15.29084 | 38.91898 | 7543 ft | 17 kts | 73° |
| 2026-05-07 13:25 | 15.29116 | 38.92017 | 7546 ft | 15 kts | 75° |
| 2026-05-07 13:25 | 15.29166 | 38.92089 | 7547 ft | 9 kts | 38° |
| 2026-05-07 13:26 | 15.29169 | 38.92116 | 7548 ft | 3 kts | 155° |
| 2026-05-07 13:26 | 15.29144 | 38.92105 | 7548 ft | 5 kts | 230° |
| 2026-05-07 13:26 | 15.29133 | 38.92079 | 7547 ft | 0 kts | 253° |
| 2026-05-07 13:27 | 15.29127 | 38.92062 | 7546 ft | 18 kts | 253° |
| 2026-05-07 13:27 | 15.29106 | 38.91988 | 7545 ft | 0 kts | 253° |
| 2026-05-07 13:28 | 15.29105 | 38.91983 | 7545 ft | 10 kts | 253° |
| 2026-05-07 13:28 | 15.29013 | 38.91643 | 7541 ft | 86 kts | 254° |
| 2026-05-07 13:28 | 15.28779 | 38.90784 | 7535 ft | 157 kts | 254° |
| 2026-05-07 13:28 | 15.28432 | 38.89507 | 7751 ft | 202 kts | 255° |
| 2026-05-07 13:29 | 15.28085 | 38.88135 | 8730 ft | 200 kts | 255° |
| 2026-05-07 13:29 | 15.27758 | 38.86737 | 9230 ft | 208 kts | 257° |
| 2026-05-07 13:29 | 15.27840 | 38.85213 | 9542 ft | 226 kts | 293° |
| 2026-05-07 13:29 | 15.28811 | 38.83882 | 9926 ft | 240 kts | 326° |
| 2026-05-07 13:30 | 15.30372 | 38.83210 | 10414 ft | 250 kts | 355° |
| 2026-05-07 13:30 | 15.32138 | 38.83375 | 10786 ft | 265 kts | 21° |
| 2026-05-07 13:30 | 15.33909 | 38.84021 | 11177 ft | 282 kts | 10° |
| 2026-05-07 13:30 | 15.35935 | 38.84068 | 11545 ft | 300 kts | 359° |
| 2026-05-07 13:31 | 15.38100 | 38.84009 | 11976 ft | 317 kts | 1° |
| 2026-05-07 13:31 | 15.40357 | 38.84061 | 12453 ft | 333 kts | 2° |
| 2026-05-07 13:31 | 15.42738 | 38.84166 | 12848 ft | 351 kts | 3° |
| 2026-05-07 13:31 | 15.45258 | 38.84306 | 13287 ft | 368 kts | 4° |
| 2026-05-07 13:32 | 15.47827 | 38.84463 | 14085 ft | 371 kts | 4° |
| 2026-05-07 13:32 | 15.50406 | 38.84629 | 14896 ft | 372 kts | 4° |
| 2026-05-07 13:32 | 15.53004 | 38.84801 | 15621 ft | 376 kts | 4° |
| 2026-05-07 13:32 | 15.55626 | 38.84977 | 16319 ft | 380 kts | 4° |
| 2026-05-07 13:33 | 15.58274 | 38.85156 | 17080 ft | 381 kts | 3° |
| 2026-05-07 13:33 | 15.60925 | 38.85335 | 17748 ft | 386 kts | 3° |
| 2026-05-07 13:33 | 15.63649 | 38.85520 | 18360 ft | 393 kts | 3° |
| 2026-05-07 13:33 | 15.66387 | 38.85707 | 19008 ft | 398 kts | 3° |
| 2026-05-07 13:34 | 15.69205 | 38.85898 | 19694 ft | 402 kts | 3° |
| 2026-05-07 13:34 | 15.74845 | 38.86283 | 20965 ft | 412 kts | 3° |
| 2026-05-07 13:34 | 15.77710 | 38.86478 | 21587 ft | 416 kts | 2° |
| 2026-05-07 13:35 | 15.80623 | 38.86676 | 22222 ft | 419 kts | 2° |
| 2026-05-07 13:35 | 15.83549 | 38.86876 | 22781 ft | 425 kts | 2° |
| 2026-05-07 13:35 | 15.86513 | 38.87079 | 23352 ft | 430 kts | 2° |
| 2026-05-07 13:35 | 15.89546 | 38.87286 | 23946 ft | 434 kts | 2° |
| 2026-05-07 13:36 | 15.92566 | 38.87492 | 24485 ft | 439 kts | 2° |
| 2026-05-07 13:36 | 15.95613 | 38.87700 | 25072 ft | 442 kts | 2° |
| 2026-05-07 13:36 | 15.98695 | 38.87911 | 25638 ft | 446 kts | 2° |
| 2026-05-07 13:36 | 16.01813 | 38.88124 | 26180 ft | 450 kts | 2° |
| 2026-05-07 13:37 | 16.04959 | 38.88339 | 26710 ft | 455 kts | 2° |
| 2026-05-07 13:37 | 16.08147 | 38.88557 | 27226 ft | 460 kts | 2° |
| 2026-05-07 13:37 | 16.11359 | 38.88777 | 27720 ft | 465 kts | 2° |
| 2026-05-07 13:37 | 16.14643 | 38.89003 | 28220 ft | 469 kts | 2° |
| 2026-05-07 13:38 | 16.17925 | 38.89227 | 28699 ft | 474 kts | 2° |
| 2026-05-07 13:38 | 16.21201 | 38.89452 | 29180 ft | 478 kts | 2° |
| 2026-05-07 13:38 | 16.24527 | 38.89680 | 29650 ft | 481 kts | 2° |
| 2026-05-07 13:38 | 16.27885 | 38.89910 | 30085 ft | 485 kts | 1° |
| 2026-05-07 13:39 | 16.31292 | 38.90144 | 30671 ft | 484 kts | 1° |
| 2026-05-07 13:39 | 16.34657 | 38.90375 | 31272 ft | 483 kts | 1° |
| 2026-05-07 13:39 | 16.37980 | 38.90604 | 31872 ft | 482 kts | 1° |
| 2026-05-07 13:39 | 16.41322 | 38.90833 | 32470 ft | 480 kts | 1° |
| 2026-05-07 13:40 | 16.44668 | 38.91063 | 33007 ft | 480 kts | 1° |
| 2026-05-07 13:40 | 16.48035 | 38.91294 | 33563 ft | 480 kts | 1° |
| 2026-05-07 13:40 | 16.51349 | 38.91523 | 34154 ft | 478 kts | 1° |
| 2026-05-07 13:40 | 16.54672 | 38.91751 | 34737 ft | 476 kts | 0° |
| 2026-05-07 13:41 | 16.57963 | 38.91978 | 35235 ft | 475 kts | 0° |
| 2026-05-07 13:41 | 16.61294 | 38.92207 | 35728 ft | 473 kts | 0° |
| 2026-05-07 13:41 | 16.64586 | 38.92433 | 35833 ft | 477 kts | 0° |
| 2026-05-07 13:42 | 16.71216 | 38.92889 | 35828 ft | 474 kts | 0° |
| 2026-05-07 13:42 | 16.77784 | 38.93342 | 35820 ft | 473 kts | 0° |
| 2026-05-07 13:43 | 16.84392 | 38.93798 | 35811 ft | 474 kts | 0° |
| 2026-05-07 13:43 | 16.90961 | 38.94251 | 35809 ft | 473 kts | 0° |
| 2026-05-07 13:44 | 16.97563 | 38.94707 | 35796 ft | 475 kts | 0° |
| 2026-05-07 13:44 | 17.04167 | 38.95163 | 35792 ft | 474 kts | 0° |
| 2026-05-07 13:45 | 17.10784 | 38.95621 | 35791 ft | 473 kts | 0° |
| 2026-05-07 13:45 | 17.17394 | 38.96078 | 35799 ft | 475 kts | 0° |
| 2026-05-07 13:46 | 17.24015 | 38.96537 | 35804 ft | 476 kts | 0° |
| 2026-05-07 13:46 | 17.30606 | 38.96993 | 35798 ft | 477 kts | 0° |
| 2026-05-07 13:47 | 17.37265 | 38.97456 | 35803 ft | 476 kts | 0° |
| 2026-05-07 13:47 | 17.43857 | 38.97885 | 35803 ft | 476 kts | 358° |
| 2026-05-07 13:48 | 17.50538 | 38.98116 | 35801 ft | 477 kts | 358° |
| 2026-05-07 13:48 | 17.57172 | 38.98352 | 35801 ft | 477 kts | 358° |
| 2026-05-07 13:49 | 17.63816 | 38.98590 | 35804 ft | 478 kts | 358° |
| 2026-05-07 13:49 | 17.70488 | 38.98830 | 35802 ft | 477 kts | 358° |
| 2026-05-07 13:50 | 17.77123 | 38.99068 | 35799 ft | 476 kts | 358° |
| 2026-05-07 13:50 | 17.83752 | 38.99306 | 35805 ft | 477 kts | 358° |
| 2026-05-07 13:51 | 17.90415 | 38.99546 | 35805 ft | 478 kts | 358° |
| 2026-05-07 13:51 | 17.97041 | 38.99784 | 35795 ft | 479 kts | 358° |
| 2026-05-07 13:52 | 18.03746 | 39.00027 | 35788 ft | 479 kts | 358° |
| 2026-05-07 13:52 | 18.10437 | 39.00267 | 35786 ft | 480 kts | 358° |
| 2026-05-07 13:53 | 18.17031 | 39.00510 | 35778 ft | 479 kts | 358° |
| 2026-05-07 13:53 | 18.23732 | 39.00877 | 35784 ft | 483 kts | 359° |
| 2026-05-07 13:54 | 18.30444 | 39.01248 | 35777 ft | 481 kts | 359° |
| 2026-05-07 13:54 | 18.37097 | 39.01616 | 35780 ft | 480 kts | 359° |
| 2026-05-07 13:55 | 18.43833 | 39.01988 | 35784 ft | 481 kts | 359° |
| 2026-05-07 13:55 | 18.50493 | 39.02357 | 35781 ft | 481 kts | 359° |
| 2026-05-07 13:56 | 18.57199 | 39.02728 | 35783 ft | 482 kts | 359° |
| 2026-05-07 13:56 | 18.63901 | 39.03099 | 35784 ft | 483 kts | 358° |
| 2026-05-07 13:57 | 18.70650 | 39.03473 | 35786 ft | 483 kts | 358° |
| 2026-05-07 13:57 | 18.77364 | 39.03846 | 35790 ft | 483 kts | 358° |
| 2026-05-07 13:58 | 18.84091 | 39.04219 | 35791 ft | 484 kts | 358° |
| 2026-05-07 13:58 | 18.90827 | 39.04593 | 35797 ft | 486 kts | 358° |
| 2026-05-07 13:59 | 18.97602 | 39.04971 | 35805 ft | 485 kts | 358° |
| 2026-05-07 13:59 | 19.04348 | 39.05346 | 35806 ft | 485 kts | 358° |
| 2026-05-07 14:00 | 19.11100 | 39.05588 | 35800 ft | 480 kts | 351° |
| 2026-05-07 14:00 | 19.17586 | 39.04293 | 35804 ft | 470 kts | 339° |
| 2026-05-07 14:01 | 19.23926 | 39.02550 | 35798 ft | 472 kts | 339° |
| 2026-05-07 14:01 | 19.30253 | 39.00770 | 35795 ft | 470 kts | 339° |
| 2026-05-07 14:02 | 19.36598 | 38.98967 | 35804 ft | 472 kts | 338° |
| 2026-05-07 14:02 | 19.42921 | 38.97166 | 35804 ft | 473 kts | 338° |
| 2026-05-07 14:03 | 19.49278 | 38.95353 | 35797 ft | 470 kts | 338° |
| 2026-05-07 14:03 | 19.55630 | 38.93537 | 35795 ft | 472 kts | 338° |
| 2026-05-07 14:04 | 19.61966 | 38.91725 | 35784 ft | 472 kts | 338° |
| 2026-05-07 14:04 | 19.68297 | 38.89914 | 35784 ft | 472 kts | 338° |
| 2026-05-07 14:05 | 19.74648 | 38.88095 | 35789 ft | 472 kts | 338° |
| 2026-05-07 14:05 | 19.80991 | 38.86277 | 35789 ft | 471 kts | 338° |
| 2026-05-07 14:06 | 19.87320 | 38.84461 | 35787 ft | 471 kts | 338° |
| 2026-05-07 14:06 | 19.93720 | 38.82621 | 35186 ft | 479 kts | 338° |
| 2026-05-07 14:06 | 19.96900 | 38.81710 | 34574 ft | 472 kts | 338° |
| 2026-05-07 14:07 | 20.00046 | 38.80808 | 33967 ft | 463 kts | 338° |
| 2026-05-07 14:07 | 20.03139 | 38.79920 | 33380 ft | 457 kts | 338° |
| 2026-05-07 14:07 | 20.06205 | 38.79036 | 32818 ft | 456 kts | 338° |
| 2026-05-07 14:07 | 20.09292 | 38.78144 | 32314 ft | 463 kts | 338° |
| 2026-05-07 14:08 | 20.12420 | 38.77241 | 31786 ft | 467 kts | 338° |
| 2026-05-07 14:08 | 20.15550 | 38.76340 | 31241 ft | 467 kts | 339° |
| 2026-05-07 14:08 | 20.18669 | 38.75443 | 30699 ft | 464 kts | 339° |
| 2026-05-07 14:08 | 20.21767 | 38.74551 | 30162 ft | 461 kts | 339° |
| 2026-05-07 14:09 | 20.24864 | 38.73658 | 29627 ft | 456 kts | 339° |
| 2026-05-07 14:09 | 20.27915 | 38.72779 | 29094 ft | 451 kts | 339° |
| 2026-05-07 14:09 | 20.30931 | 38.71909 | 28555 ft | 444 kts | 339° |
| 2026-05-07 14:09 | 20.33902 | 38.71051 | 28039 ft | 438 kts | 339° |
| 2026-05-07 14:10 | 20.36788 | 38.70217 | 27531 ft | 432 kts | 339° |
| 2026-05-07 14:10 | 20.39699 | 38.69375 | 27023 ft | 428 kts | 340° |
| 2026-05-07 14:10 | 20.42560 | 38.68547 | 26526 ft | 425 kts | 340° |
| 2026-05-07 14:10 | 20.45427 | 38.67717 | 26019 ft | 423 kts | 340° |
| 2026-05-07 14:11 | 20.48263 | 38.66897 | 25523 ft | 421 kts | 340° |
| 2026-05-07 14:11 | 20.51057 | 38.66089 | 25032 ft | 418 kts | 340° |
| 2026-05-07 14:11 | 20.53869 | 38.65274 | 24535 ft | 413 kts | 341° |
| 2026-05-07 14:11 | 20.56614 | 38.64479 | 24047 ft | 408 kts | 341° |
| 2026-05-07 14:12 | 20.59353 | 38.63686 | 23564 ft | 404 kts | 341° |
| 2026-05-07 14:12 | 20.62043 | 38.62906 | 23093 ft | 400 kts | 341° |
| 2026-05-07 14:12 | 20.64726 | 38.62128 | 22619 ft | 397 kts | 341° |
| 2026-05-07 14:12 | 20.67359 | 38.61364 | 22167 ft | 393 kts | 341° |
| 2026-05-07 14:13 | 20.70017 | 38.60593 | 21705 ft | 391 kts | 341° |
| 2026-05-07 14:13 | 20.72620 | 38.59837 | 21245 ft | 390 kts | 341° |
| 2026-05-07 14:13 | 20.75260 | 38.59070 | 20774 ft | 389 kts | 341° |
| 2026-05-07 14:13 | 20.77849 | 38.58318 | 20303 ft | 388 kts | 341° |
| 2026-05-07 14:14 | 20.80465 | 38.57558 | 19823 ft | 385 kts | 341° |
| 2026-05-07 14:14 | 20.83079 | 38.56942 | 19337 ft | 386 kts | 351° |
| 2026-05-07 14:14 | 20.85734 | 38.57003 | 18869 ft | 388 kts | 7° |
| 2026-05-07 14:14 | 20.88339 | 38.57811 | 18370 ft | 390 kts | 22° |
| 2026-05-07 14:15 | 20.90692 | 38.59214 | 17882 ft | 389 kts | 31° |
| 2026-05-07 14:15 | 20.93006 | 38.60715 | 17382 ft | 387 kts | 31° |
| 2026-05-07 14:15 | 20.95314 | 38.62220 | 16909 ft | 382 kts | 31° |
| 2026-05-07 14:15 | 20.97566 | 38.63692 | 16519 ft | 376 kts | 31° |
| 2026-05-07 14:16 | 20.99742 | 38.65117 | 16358 ft | 367 kts | 31° |
| 2026-05-07 14:16 | 21.01943 | 38.66560 | 16200 ft | 371 kts | 31° |
| 2026-05-07 14:16 | 21.04182 | 38.68029 | 16038 ft | 376 kts | 31° |
| 2026-05-07 14:16 | 21.06392 | 38.69481 | 15865 ft | 375 kts | 31° |
| 2026-05-07 14:17 | 21.08620 | 38.70944 | 15688 ft | 372 kts | 31° |
| 2026-05-07 14:17 | 21.10833 | 38.72398 | 15511 ft | 371 kts | 31° |
| 2026-05-07 14:17 | 21.13015 | 38.73833 | 15329 ft | 370 kts | 32° |
| 2026-05-07 14:17 | 21.15223 | 38.75285 | 15144 ft | 368 kts | 32° |
| 2026-05-07 14:18 | 21.17416 | 38.76727 | 14962 ft | 367 kts | 32° |
| 2026-05-07 14:18 | 21.19588 | 38.78157 | 14782 ft | 367 kts | 32° |
| 2026-05-07 14:18 | 21.21769 | 38.79593 | 14597 ft | 365 kts | 32° |
| 2026-05-07 14:18 | 21.23907 | 38.81000 | 14412 ft | 363 kts | 32° |
| 2026-05-07 14:19 | 21.26059 | 38.82418 | 14229 ft | 361 kts | 32° |
| 2026-05-07 14:19 | 21.28214 | 38.83838 | 14044 ft | 361 kts | 32° |
| 2026-05-07 14:19 | 21.30325 | 38.85230 | 13861 ft | 359 kts | 32° |
| 2026-05-07 14:19 | 21.32460 | 38.86638 | 13675 ft | 359 kts | 32° |
| 2026-05-07 14:20 | 21.34605 | 38.88053 | 13493 ft | 359 kts | 32° |
| 2026-05-07 14:20 | 21.36726 | 38.89453 | 13305 ft | 356 kts | 32° |
| 2026-05-07 14:20 | 21.38827 | 38.90840 | 13119 ft | 355 kts | 32° |
| 2026-05-07 14:20 | 21.40928 | 38.92228 | 12939 ft | 355 kts | 32° |
| 2026-05-07 14:21 | 21.42948 | 38.93720 | 12767 ft | 354 kts | 42° |
| 2026-05-07 14:21 | 21.44733 | 38.95582 | 12339 ft | 355 kts | 46° |
| 2026-05-07 14:21 | 21.46448 | 38.97406 | 12135 ft | 335 kts | 46° |
| 2026-05-07 14:21 | 21.48054 | 38.99130 | 11844 ft | 318 kts | 46° |
| 2026-05-07 14:22 | 21.49560 | 39.00749 | 11623 ft | 301 kts | 46° |
| 2026-05-07 14:22 | 21.51025 | 39.02327 | 11423 ft | 286 kts | 46° |
| 2026-05-07 14:22 | 21.52372 | 39.03778 | 11260 ft | 270 kts | 46° |
| 2026-05-07 14:22 | 21.53683 | 39.05194 | 10899 ft | 267 kts | 46° |
| 2026-05-07 14:23 | 21.54977 | 39.06635 | 10484 ft | 263 kts | 54° |
| 2026-05-07 14:23 | 21.55811 | 39.08364 | 10140 ft | 262 kts | 71° |
| 2026-05-07 14:23 | 21.56449 | 39.10161 | 9937 ft | 259 kts | 70° |
| 2026-05-07 14:23 | 21.57090 | 39.11957 | 9682 ft | 258 kts | 70° |
| 2026-05-07 14:24 | 21.57729 | 39.13776 | 9402 ft | 259 kts | 70° |
| 2026-05-07 14:24 | 21.58355 | 39.15580 | 9149 ft | 258 kts | 70° |
| 2026-05-07 14:24 | 21.58973 | 39.17367 | 8936 ft | 255 kts | 70° |
| 2026-05-07 14:24 | 21.59596 | 39.19172 | 8687 ft | 254 kts | 70° |
| 2026-05-07 14:25 | 21.60203 | 39.20933 | 8412 ft | 254 kts | 71° |
| 2026-05-07 14:25 | 21.60612 | 39.22118 | 8210 ft | 255 kts | 71° |
| 2026-05-07 14:25 | 21.61428 | 39.24491 | 7902 ft | 252 kts | 71° |
| 2026-05-07 14:25 | 21.61966 | 39.26273 | 7666 ft | 249 kts | 83° |
| 2026-05-07 14:26 | 21.61806 | 39.28070 | 7388 ft | 243 kts | 114° |
| 2026-05-07 14:26 | 21.60819 | 39.29487 | 7127 ft | 237 kts | 146° |
| 2026-05-07 14:26 | 21.59368 | 39.30310 | 6873 ft | 235 kts | 157° |
| 2026-05-07 14:26 | 21.57853 | 39.31015 | 6591 ft | 235 kts | 158° |
| 2026-05-07 14:27 | 21.56342 | 39.31678 | 6409 ft | 232 kts | 159° |
| 2026-05-07 14:27 | 21.54838 | 39.32309 | 6118 ft | 233 kts | 160° |
| 2026-05-07 14:27 | 21.53321 | 39.32928 | 5829 ft | 232 kts | 160° |
| 2026-05-07 14:27 | 21.51810 | 39.33535 | 5570 ft | 232 kts | 161° |
| 2026-05-07 14:28 | 21.50282 | 39.34142 | 5271 ft | 234 kts | 161° |
| 2026-05-07 14:28 | 21.48756 | 39.34745 | 5017 ft | 235 kts | 160° |
| 2026-05-07 14:28 | 21.47219 | 39.35350 | 4756 ft | 235 kts | 161° |
| 2026-05-07 14:28 | 21.45667 | 39.35959 | 4481 ft | 236 kts | 160° |
| 2026-05-07 14:29 | 21.44127 | 39.36563 | 4245 ft | 235 kts | 160° |
| 2026-05-07 14:29 | 21.42589 | 39.37167 | 3994 ft | 235 kts | 160° |
| 2026-05-07 14:29 | 21.41053 | 39.37771 | 3683 ft | 239 kts | 160° |
| 2026-05-07 14:29 | 21.39497 | 39.38381 | 3483 ft | 235 kts | 160° |
| 2026-05-07 14:30 | 21.37948 | 39.38988 | 3192 ft | 238 kts | 160° |
| 2026-05-07 14:30 | 21.36335 | 39.39263 | 2941 ft | 235 kts | 189° |
| 2026-05-07 14:30 | 21.34882 | 39.38603 | 2839 ft | 222 kts | 225° |
| 2026-05-07 14:30 | 21.34021 | 39.37260 | 2869 ft | 224 kts | 248° |
| 2026-05-07 14:31 | 21.33367 | 39.35705 | 2838 ft | 232 kts | 249° |
| 2026-05-07 14:31 | 21.32805 | 39.34103 | 2803 ft | 225 kts | 264° |
| 2026-05-07 14:31 | 21.32976 | 39.32514 | 2828 ft | 214 kts | 298° |
| 2026-05-07 14:31 | 21.33982 | 39.31335 | 2843 ft | 217 kts | 330° |
| 2026-05-07 14:32 | 21.35352 | 39.30629 | 2814 ft | 220 kts | 335° |
| 2026-05-07 14:32 | 21.36750 | 39.29976 | 2797 ft | 216 kts | 336° |
| 2026-05-07 14:32 | 21.38140 | 39.29368 | 2809 ft | 214 kts | 338° |
| 2026-05-07 14:32 | 21.39528 | 39.28787 | 2807 ft | 216 kts | 338° |
| 2026-05-07 14:33 | 21.40939 | 39.28213 | 2843 ft | 213 kts | 339° |
| 2026-05-07 14:33 | 21.42345 | 39.27645 | 2817 ft | 218 kts | 339° |
| 2026-05-07 14:33 | 21.43764 | 39.27079 | 2708 ft | 218 kts | 339° |
| 2026-05-07 14:33 | 21.45183 | 39.26495 | 2596 ft | 214 kts | 338° |
| 2026-05-07 14:34 | 21.46568 | 39.25931 | 2460 ft | 210 kts | 339° |
| 2026-05-07 14:34 | 21.47916 | 39.25390 | 2329 ft | 210 kts | 339° |
| 2026-05-07 14:34 | 21.49291 | 39.24843 | 2196 ft | 210 kts | 339° |
| 2026-05-07 14:34 | 21.50670 | 39.24297 | 2057 ft | 207 kts | 340° |
| 2026-05-07 14:35 | 21.52012 | 39.23769 | 1707 ft | 204 kts | 340° |
| 2026-05-07 14:35 | 21.53234 | 39.23290 | 1785 ft | 169 kts | 340° |
| 2026-05-07 14:35 | 21.54303 | 39.22872 | 1656 ft | 156 kts | 340° |
| 2026-05-07 14:35 | 21.55298 | 39.22483 | 1667 ft | 154 kts | 339° |
| 2026-05-07 14:36 | 21.56339 | 39.22076 | 1691 ft | 160 kts | 340° |
| 2026-05-07 14:36 | 21.57395 | 39.21663 | 1682 ft | 160 kts | 340° |
| 2026-05-07 14:36 | 21.58435 | 39.21256 | 1679 ft | 160 kts | 339° |
| 2026-05-07 14:36 | 21.59492 | 39.20842 | 1477 ft | 159 kts | 339° |
| 2026-05-07 14:37 | 21.60509 | 39.20445 | 1265 ft | 148 kts | 339° |
| 2026-05-07 14:37 | 21.62308 | 39.19742 | 891 ft | 128 kts | 338° |
| 2026-05-07 14:37 | 21.63105 | 39.19430 | 762 ft | 125 kts | 338° |
| 2026-05-07 14:38 | 21.63919 | 39.19111 | 618 ft | 124 kts | 338° |
| 2026-05-07 14:38 | 21.64744 | 39.18788 | 470 ft | 126 kts | 338° |
| 2026-05-07 14:38 | 21.65583 | 39.18472 | 309 ft | 129 kts | 338° |
| 2026-05-07 14:38 | 21.66418 | 39.18143 | 150 ft | 131 kts | 336° |
| 2026-05-07 14:39 | 21.67274 | 39.17794 | 60 ft | 125 kts | 336° |
| 2026-05-07 14:39 | 21.67843 | 39.17577 | 59 ft | 51 kts | 340° |
| 2026-05-07 14:39 | 21.68080 | 39.17482 | 59 ft | 17 kts | 340° |
| 2026-05-07 14:39 | 21.68147 | 39.17455 | 59 ft | 2 kts | 339° |
| 2026-05-07 14:40 | 21.68202 | 39.17429 | 59 ft | 14 kts | 332° |
| 2026-05-07 14:40 | 21.68292 | 39.17356 | 59 ft | 15 kts | 316° |
| 2026-05-07 14:40 | 21.68362 | 39.17276 | 59 ft | 13 kts | 309° |
| 2026-05-07 14:40 | 21.68420 | 39.17200 | 59 ft | 12 kts | 309° |
| 2026-05-07 14:41 | 21.68471 | 39.17134 | 59 ft | 10 kts | 309° |
| 2026-05-07 14:41 | 21.68520 | 39.17085 | 59 ft | 8 kts | 324° |
| 2026-05-07 14:41 | 21.68571 | 39.17056 | 59 ft | 7 kts | 339° |
| 2026-05-07 14:41 | 21.68619 | 39.17037 | 59 ft | 7 kts | 339° |
| 2026-05-07 14:42 | 21.68673 | 39.17016 | 59 ft | 9 kts | 340° |
| 2026-05-07 14:42 | 21.68732 | 39.16992 | 59 ft | 8 kts | 340° |
| 2026-05-07 14:42 | 21.68789 | 39.16970 | 59 ft | 10 kts | 339° |
| 2026-05-07 14:42 | 21.68871 | 39.16936 | 59 ft | 13 kts | 339° |
| 2026-05-07 14:43 | 21.68956 | 39.16904 | 59 ft | 12 kts | 340° |
| 2026-05-07 14:43 | 21.69032 | 39.16874 | 59 ft | 11 kts | 339° |
| 2026-05-07 14:43 | 21.69162 | 39.16824 | 59 ft | 26 kts | 340° |
| 2026-05-07 14:43 | 21.69240 | 39.16767 | 59 ft | 11 kts | 289° |
| 2026-05-07 14:44 | 21.69221 | 39.16660 | 59 ft | 16 kts | 247° |
| 2026-05-07 14:44 | 21.69183 | 39.16553 | 59 ft | 13 kts | 250° |
| 2026-05-07 14:44 | 21.69152 | 39.16460 | 59 ft | 12 kts | 250° |
| 2026-05-07 14:44 | 21.69117 | 39.16360 | 59 ft | 18 kts | 250° |
| 2026-05-07 14:45 | 21.69062 | 39.16197 | 59 ft | 25 kts | 251° |
| 2026-05-07 14:45 | 21.69002 | 39.16019 | 59 ft | 25 kts | 249° |
| 2026-05-07 14:45 | 21.68955 | 39.15891 | 59 ft | 11 kts | 250° |
| 2026-05-07 14:45 | 21.68930 | 39.15818 | 59 ft | 10 kts | 250° |
| 2026-05-07 14:46 | 21.68898 | 39.15726 | 59 ft | 17 kts | 250° |
| 2026-05-07 14:46 | 21.68848 | 39.15577 | 59 ft | 25 kts | 249° |
| 2026-05-07 14:46 | 21.68782 | 39.15392 | 59 ft | 26 kts | 249° |
| 2026-05-07 14:46 | 21.68719 | 39.15208 | 59 ft | 25 kts | 250° |
| 2026-05-07 14:47 | 21.68659 | 39.15034 | 59 ft | 24 kts | 249° |
| 2026-05-07 14:47 | 21.68603 | 39.14868 | 59 ft | 22 kts | 249° |
| 2026-05-07 14:47 | 21.68549 | 39.14711 | 58 ft | 20 kts | 249° |
| 2026-05-07 14:47 | 21.68500 | 39.14572 | 58 ft | 19 kts | 249° |
| 2026-05-07 14:48 | 21.68455 | 39.14441 | 58 ft | 18 kts | 250° |
| 2026-05-07 14:48 | 21.68406 | 39.14297 | 58 ft | 24 kts | 250° |
| 2026-05-07 14:48 | 21.68342 | 39.14113 | 58 ft | 27 kts | 250° |
| 2026-05-07 14:48 | 21.68278 | 39.13926 | 58 ft | 26 kts | 250° |
| 2026-05-07 14:49 | 21.68231 | 39.13831 | 58 ft | 9 kts | 210° |
| 2026-05-07 14:49 | 21.68132 | 39.13844 | 58 ft | 19 kts | 159° |
| 2026-05-07 14:49 | 21.68006 | 39.13895 | 58 ft | 19 kts | 159° |
| 2026-05-07 14:49 | 21.67898 | 39.13938 | 58 ft | 9 kts | 151° |
| 2026-05-07 14:50 | 21.67875 | 39.13992 | 58 ft | 7 kts | 84° |
| 2026-05-07 14:50 | 21.67889 | 39.14043 | 58 ft | 6 kts | 69° |
| 2026-05-07 14:50 | 21.67900 | 39.14074 | 58 ft | 0 kts | 70° |
| 2026-05-07 14:50 | 21.67901 | 39.14079 | 58 ft | 8 kts | 70° |
| 2026-05-07 14:51 | 21.67945 | 39.14204 | 58 ft | 20 kts | 69° |
| 2026-05-07 14:51 | 21.67995 | 39.14347 | 58 ft | 19 kts | 70° |
| 2026-05-07 14:51 | 21.68038 | 39.14474 | 58 ft | 17 kts | 69° |
| 2026-05-07 14:51 | 21.68078 | 39.14587 | 58 ft | 15 kts | 70° |
| 2026-05-07 14:52 | 21.68107 | 39.14691 | 59 ft | 11 kts | 91° |
| 2026-05-07 14:52 | 21.68056 | 39.14740 | 58 ft | 9 kts | 159° |
| 2026-05-07 14:52 | 21.67993 | 39.14765 | 58 ft | 9 kts | 160° |
| 2026-05-07 14:52 | 21.67927 | 39.14791 | 58 ft | 14 kts | 159° |
| 2026-05-07 14:53 | 21.67835 | 39.14828 | 58 ft | 16 kts | 159° |
| 2026-05-07 14:53 | 21.67727 | 39.14869 | 58 ft | 16 kts | 161° |
| 2026-05-07 14:53 | 21.67629 | 39.14909 | 58 ft | 14 kts | 160° |
| 2026-05-07 14:53 | 21.67561 | 39.14935 | 59 ft | 9 kts | 160° |
| 2026-05-07 14:54 | 21.67522 | 39.14952 | 58 ft | 2 kts | 147° |
| 2026-05-07 14:54 | 21.67518 | 39.14990 | 59 ft | 6 kts | 72° |
| 2026-05-07 14:54 | 21.67534 | 39.15036 | 59 ft | 5 kts | 70° |
| 2026-05-07 14:54 | 21.67538 | 39.15050 | 59 ft | 0 kts | 70° |
| 2026-05-07 14:55 | 21.67538 | 39.15049 | 59 ft | 0 kts | 70° |